Time;durP1;ratioP1;P1;durP2;ratioP2;P2;SDS_P1;SDS_P2;PMS_P1;PMS_P2;Temp;Humidity;BMP_temperature;BMP_pressure;BME280_temperature;BME280_humidity;BME280_pressure;Samples;Min_cycle;Max_cycle;Signal;HPM_P1;HPM_P2
2022/05/18 00:02:00;;;;;;;16.77;13.70;;;23.50;77.90;;;;;;5014061;28;20435;-65
2022/05/18 00:04:29;;;;;;;18.48;13.23;;;23.60;78.10;;;;;;5014335;28;20037;-60
2022/05/18 00:06:54;;;;;;;19.77;14.07;;;23.50;78.30;;;;;;5014258;28;20114;-62
2022/05/18 00:09:20;;;;;;;16.75;13.15;;;23.50;78.30;;;;;;5014258;28;20053;-62
2022/05/18 00:11:46;;;;;;;24.63;14.68;;;23.60;78.50;;;;;;5014141;28;20041;-65
2022/05/18 00:14:12;;;;;;;20.60;13.50;;;23.50;78.40;;;;;;5014093;28;20384;-65
2022/05/18 00:16:38;;;;;;;24.75;15.60;;;23.50;78.70;;;;;;5013864;28;20022;-59
2022/05/18 00:19:04;;;;;;;20.48;14.32;;;23.50;78.90;;;;;;5013924;28;20033;-63
2022/05/18 00:21:31;;;;;;;18.95;14.18;;;23.50;79.00;;;;;;5012698;28;20119;-62
2022/05/18 00:23:58;;;;;;;21.45;14.85;;;23.50;79.00;;;;;;5013758;28;20034;-64
2022/05/18 00:26:24;;;;;;;19.13;14.77;;;23.50;79.20;;;;;;5013967;28;20029;-66
2022/05/18 00:28:50;;;;;;;24.45;15.10;;;23.40;79.40;;;;;;5013565;28;20034;-66
2022/05/18 00:31:18;;;;;;;19.95;13.95;;;23.40;79.30;;;;;;5013585;28;20026;-64
2022/05/18 00:33:44;;;;;;;16.77;14.13;;;23.40;79.50;;;;;;5012304;28;20032;-60
2022/05/18 00:36:11;;;;;;;20.35;15.43;;;23.40;79.60;;;;;;5013850;28;20017;-65
2022/05/18 00:38:36;;;;;;;18.70;14.65;;;23.40;79.70;;;;;;5013718;28;20029;-67
2022/05/18 00:41:02;;;;;;;19.83;14.75;;;23.40;79.90;;;;;;5013616;28;20026;-61
2022/05/18 00:43:30;;;;;;;17.23;14.05;;;23.40;79.80;;;;;;5013692;28;20052;-66
2022/05/18 00:45:58;;;;;;;21.40;14.93;;;23.40;79.80;;;;;;5013305;28;20030;-66
2022/05/18 00:48:24;;;;;;;18.17;14.15;;;23.40;79.90;;;;;;5013563;28;20025;-59
2022/05/18 00:50:51;;;;;;;21.00;14.82;;;23.40;79.90;;;;;;5013417;28;20053;-62
2022/05/18 00:53:23;;;;;;;17.75;13.40;;;23.30;80.00;;;;;;5013471;28;20099;-61
2022/05/18 00:55:55;;;;;;;17.83;12.23;;;23.30;80.00;;;;;;5013427;28;20029;-64
2022/05/18 00:58:47;;;;;;;17.05;13.30;;;23.30;79.70;;;;;;5013249;28;20030;-64
2022/05/18 01:01:13;;;;;;;;;;;23.30;79.80;;;;;;5013738;28;20537;-64
2022/05/18 01:03:49;;;;;;;15.02;13.30;;;23.30;79.70;;;;;;5013426;28;19960;-61
2022/05/18 01:06:35;;;;;;;17.17;14.05;;;23.30;80.00;;;;;;5013467;28;20472;-63
2022/05/18 01:09:11;;;;;;;16.98;12.38;;;23.20;79.90;;;;;;5013271;28;20112;-64
2022/05/18 01:11:39;;;;;;;16.17;13.05;;;23.20;79.70;;;;;;5013299;28;20037;-63
2022/05/18 01:14:11;;;;;;;17.45;12.48;;;23.20;79.60;;;;;;5012932;28;20412;-63
2022/05/18 01:16:37;;;;;;;16.48;13.25;;;23.20;79.50;;;;;;5013410;28;20029;-64
2022/05/18 01:19:06;;;;;;;15.20;12.40;;;23.20;79.50;;;;;;5013252;28;20022;-60
2022/05/18 01:21:43;;;;;;;16.50;10.27;;;23.20;79.40;;;;;;5013200;28;20025;-64
2022/05/18 01:24:20;;;;;;;18.52;11.35;;;23.20;78.90;;;;;;5012953;28;20014;-60
2022/05/18 01:26:47;;;;;;;16.40;14.23;;;23.20;78.60;;;;;;5013153;28;20038;-60
2022/05/18 01:29:16;;;;;;;12.82;9.43;;;23.20;79.20;;;;;;5012916;28;20108;-65
2022/05/18 01:31:52;;;;;;;16.98;12.63;;;23.20;78.60;;;;;;5013670;28;20042;-64
2022/05/18 01:34:22;;;;;;;19.45;14.38;;;23.20;78.80;;;;;;5016767;28;20036;-61
2022/05/18 01:36:48;;;;;;;16.08;12.63;;;23.20;78.90;;;;;;5017096;28;20029;-61
2022/05/18 01:39:23;;;;;;;15.80;12.98;;;23.20;78.90;;;;;;5016907;28;20480;-62
2022/05/18 01:42:01;;;;;;;17.60;13.23;;;23.10;78.90;;;;;;5017009;28;20061;-66
2022/05/18 01:44:27;;;;;;;18.33;12.45;;;23.20;78.80;;;;;;5016482;28;20109;-60
2022/05/18 01:46:52;;;;;;;19.63;13.75;;;23.10;78.90;;;;;;5016978;28;20022;-66
2022/05/18 01:49:18;;;;;;;17.38;13.13;;;23.10;78.80;;;;;;5016664;28;20036;-64
2022/05/18 01:51:51;;;;;;;16.45;12.65;;;23.10;78.90;;;;;;5016946;28;20368;-65
2022/05/18 01:54:17;;;;;;;15.07;13.38;;;23.10;79.00;;;;;;5016622;28;20436;-62
2022/05/18 01:56:42;;;;;;;16.77;12.75;;;23.10;79.10;;;;;;5016687;28;20518;-64
2022/05/18 01:59:08;;;;;;;17.33;13.80;;;23.10;79.20;;;;;;5016252;28;20030;-63
2022/05/18 02:01:34;;;;;;;16.02;13.45;;;23.10;79.10;;;;;;5016711;28;20037;-64
2022/05/18 02:04:00;;;;;;;14.68;12.05;;;23.10;79.10;;;;;;5016698;28;20387;-65
2022/05/18 02:06:26;;;;;;;17.20;14.02;;;23.10;79.20;;;;;;5016251;28;20029;-63
2022/05/18 02:08:52;;;;;;;17.13;13.52;;;23.10;79.10;;;;;;5016653;28;20140;-64
2022/05/18 02:11:20;;;;;;;19.50;13.70;;;23.10;79.10;;;;;;5016268;28;20023;-65
2022/05/18 02:13:46;;;;;;;16.45;13.00;;;23.10;78.80;;;;;;5014880;28;20026;-60
2022/05/18 02:16:12;;;;;;;16.70;12.80;;;23.10;78.90;;;;;;5016281;28;20476;-60
2022/05/18 02:18:38;;;;;;;14.98;12.00;;;23.10;79.10;;;;;;5016335;28;20026;-64
2022/05/18 02:21:09;;;;;;;18.75;13.35;;;23.10;79.40;;;;;;5016472;28;20018;-61
2022/05/18 02:23:39;;;;;;;15.40;11.20;;;23.10;80.10;;;;;;5016247;28;20032;-62
2022/05/18 02:26:06;;;;;;;15.88;11.90;;;23.10;79.60;;;;;;5015640;28;20153;-61
2022/05/18 02:28:32;;;;;;;15.45;11.60;;;23.00;79.50;;;;;;5015935;28;20030;-64
2022/05/18 02:30:58;;;;;;;19.67;12.48;;;23.00;79.80;;;;;;5014731;28;20415;-63
2022/05/18 02:33:24;;;;;;;17.23;12.75;;;23.00;81.00;;;;;;5015695;28;20479;-64
2022/05/18 02:35:49;;;;;;;17.02;12.95;;;23.00;83.10;;;;;;5009723;28;20029;-66
2022/05/18 02:38:15;;;;;;;15.88;13.20;;;23.00;84.10;;;;;;5015613;28;20476;-60
2022/05/18 02:40:40;;;;;;;16.92;13.18;;;23.00;85.70;;;;;;5014202;28;20026;-66
2022/05/18 02:43:06;;;;;;;14.98;13.18;;;23.00;87.00;;;;;;5015072;28;20026;-62
2022/05/18 02:45:31;;;;;;;16.80;13.18;;;23.00;87.30;;;;;;5015711;28;20030;-61
2022/05/18 02:47:57;;;;;;;17.13;14.18;;;23.00;87.10;;;;;;5015846;28;20076;-64
2022/05/18 02:50:22;;;;;;;16.73;13.88;;;22.90;87.20;;;;;;5015580;28;20442;-64
2022/05/18 02:52:48;;;;;;;18.80;14.18;;;23.00;87.50;;;;;;5015525;28;20058;-63
2022/05/18 02:57:59;;;;;;;14.98;13.48;;;22.90;88.50;;;;;;5015846;28;20064;-63
2022/05/18 03:00:26;;;;;;;20.05;14.52;;;22.90;88.90;;;;;;5015641;28;20018;-63
2022/05/18 03:02:51;;;;;;;15.38;13.82;;;22.90;89.10;;;;;;5015533;28;20551;-65
2022/05/18 03:05:17;;;;;;;19.45;14.52;;;23.00;89.40;;;;;;5015434;28;20104;-59
2022/05/18 03:07:43;;;;;;;17.60;13.65;;;22.90;89.40;;;;;;5015287;28;20088;-63
2022/05/18 03:10:10;;;;;;;17.52;13.73;;;22.90;89.60;;;;;;5015193;28;20022;-62
2022/05/18 03:12:36;;;;;;;18.60;14.15;;;22.80;89.60;;;;;;5013986;28;20033;-62
2022/05/18 03:15:01;;;;;;;21.92;13.43;;;22.90;89.90;;;;;;5015448;28;20021;-66
2022/05/18 03:17:27;;;;;;;14.93;12.40;;;22.80;87.40;;;;;;5015181;28;20049;-60
2022/05/18 03:19:52;;;;;;;16.00;12.13;;;22.90;86.40;;;;;;5015374;28;20383;-67
2022/05/18 03:25:05;;;;;;;14.52;11.90;;;22.90;85.60;;;;;;5015040;28;20125;-67
2022/05/18 03:27:31;;;;;;;18.50;13.85;;;22.90;85.50;;;;;;5014632;28;20483;-65
2022/05/18 03:29:57;;;;;;;15.60;13.07;;;22.90;84.90;;;;;;5015255;28;20045;-60
2022/05/18 03:32:22;;;;;;;14.27;12.77;;;23.00;84.70;;;;;;5014598;28;20117;-66
2022/05/18 03:34:49;;;;;;;16.52;13.63;;;23.00;84.50;;;;;;5014913;28;20022;-65
2022/05/18 03:37:16;;;;;;;15.05;12.85;;;23.00;84.30;;;;;;5013681;28;20022;-60
2022/05/18 03:39:42;;;;;;;15.60;12.13;;;23.00;84.40;;;;;;5013386;28;20030;-59
2022/05/18 03:42:08;;;;;;;13.68;12.43;;;23.00;84.30;;;;;;5014864;28;20360;-67
2022/05/18 03:44:34;;;;;;;13.57;11.70;;;23.00;84.40;;;;;;5014564;28;20395;-60
2022/05/18 03:46:59;;;;;;;15.38;13.00;;;23.00;84.30;;;;;;5014750;28;20464;-62
2022/05/18 03:49:25;;;;;;;14.75;13.18;;;23.00;84.20;;;;;;5015138;28;20034;-64
2022/05/18 03:51:50;;;;;;;16.88;12.88;;;23.00;84.00;;;;;;5014405;28;20033;-60
2022/05/18 03:54:17;;;;;;;20.65;13.82;;;23.00;84.00;;;;;;5013649;28;20030;-60
2022/05/18 03:56:42;;;;;;;15.40;13.85;;;23.00;83.80;;;;;;5013114;28;20451;-60
2022/05/18 03:59:08;;;;;;;16.17;13.35;;;23.00;83.80;;;;;;5014488;28;20022;-61
2022/05/18 04:01:34;;;;;;;15.95;12.85;;;23.00;83.50;;;;;;5014469;28;20514;-59
2022/05/18 04:03:59;;;;;;;13.45;12.15;;;23.00;84.00;;;;;;5014311;28;20026;-64
2022/05/18 04:06:25;;;;;;;13.20;11.60;;;23.00;83.10;;;;;;5014358;28;20022;-62
2022/05/18 04:08:52;;;;;;;12.80;11.25;;;23.00;82.80;;;;;;5014134;28;20030;-66
2022/05/18 04:11:18;;;;;;;13.82;11.32;;;23.00;82.70;;;;;;5014065;28;20514;-67
2022/05/18 04:13:44;;;;;;;11.32;9.98;;;23.00;82.50;;;;;;5014108;28;20108;-63
2022/05/18 04:16:09;;;;;;;12.05;10.30;;;22.90;82.50;;;;;;5014219;28;20054;-67
2022/05/18 04:18:35;;;;;;;11.13;9.80;;;22.90;82.60;;;;;;5014067;28;20364;-66
2022/05/18 04:21:01;;;;;;;12.90;10.93;;;22.90;82.60;;;;;;5013602;28;20022;-66
2022/05/18 04:23:28;;;;;;;16.85;14.93;;;22.90;82.50;;;;;;5013508;28;20037;-63
2022/05/18 04:25:54;;;;;;;20.27;15.88;;;22.90;82.50;;;;;;5015069;28;20034;-61
2022/05/18 04:28:20;;;;;;;21.17;16.15;;;22.90;82.40;;;;;;5009445;28;20053;-67
2022/05/18 04:30:47;;;;;;;23.05;17.33;;;22.90;82.40;;;;;;5003087;28;20072;-65
2022/05/18 04:33:17;;;;;;;20.83;17.88;;;22.90;82.50;;;;;;5013641;28;20174;-66
2022/05/18 04:35:43;;;;;;;22.60;18.98;;;22.90;82.60;;;;;;5013680;28;20097;-63
2022/05/18 04:38:08;;;;;;;23.08;19.63;;;22.90;82.80;;;;;;5012431;28;20113;-64
2022/05/18 04:40:34;;;;;;;26.55;20.52;;;22.90;83.30;;;;;;5013566;28;20029;-62
2022/05/18 04:43:00;;;;;;;26.75;21.50;;;22.90;82.80;;;;;;5013619;28;20072;-60
2022/05/18 04:45:26;;;;;;;26.33;19.42;;;22.90;83.10;;;;;;5013765;28;20057;-63
2022/05/18 04:47:51;;;;;;;24.20;19.20;;;22.90;83.30;;;;;;5013569;28;20040;-62
2022/05/18 04:50:18;;;;;;;23.52;19.05;;;22.80;83.50;;;;;;5012040;28;20414;-64
2022/05/18 04:52:44;;;;;;;21.27;16.35;;;22.90;83.50;;;;;;5005104;28;20030;-67
2022/05/18 04:55:10;;;;;;;22.00;17.13;;;22.80;85.00;;;;;;5013439;28;20101;-66
2022/05/18 04:57:36;;;;;;;20.67;15.95;;;22.80;85.60;;;;;;5013638;28;20041;-67
2022/05/18 05:00:05;;;;;;;18.70;15.63;;;22.80;86.40;;;;;;5013229;28;20030;-65
2022/05/18 05:02:34;;;;;;;16.58;13.75;;;22.70;87.00;;;;;;4999635;28;20030;-66
2022/05/18 05:04:59;;;;;;;14.52;12.60;;;22.70;88.20;;;;;;5012198;28;20030;-67
2022/05/18 05:07:25;;;;;;;14.55;11.60;;;22.70;88.10;;;;;;5010905;28;20038;-65
2022/05/18 05:09:50;;;;;;;14.50;11.82;;;22.70;88.30;;;;;;5013323;28;20026;-64
2022/05/18 05:12:18;;;;;;;14.70;11.05;;;22.70;88.40;;;;;;5009756;28;20049;-67
2022/05/18 05:14:44;;;;;;;15.35;10.57;;;22.70;88.50;;;;;;5005259;28;20464;-67
2022/05/18 05:17:10;;;;;;;12.65;9.40;;;22.70;88.70;;;;;;5011652;28;20022;-67
2022/05/18 05:19:36;;;;;;;10.85;8.82;;;22.60;88.90;;;;;;5015388;28;20059;-65
2022/05/18 05:22:02;;;;;;;12.63;8.35;;;22.70;89.00;;;;;;5017578;28;20026;-65
2022/05/18 05:24:28;;;;;;;13.02;8.52;;;22.60;89.70;;;;;;5007676;28;20387;-63
2022/05/18 05:26:54;;;;;;;11.88;8.98;;;22.60;89.10;;;;;;5019619;28;20479;-66
2022/05/18 05:29:20;;;;;;;9.77;8.23;;;22.60;89.20;;;;;;5015979;28;20092;-65
2022/05/18 05:31:46;;;;;;;10.25;7.70;;;22.70;89.50;;;;;;5007109;28;20027;-61
2022/05/18 05:34:12;;;;;;;9.35;7.05;;;22.60;89.40;;;;;;4998285;28;20022;-61
2022/05/18 05:36:38;;;;;;;9.02;6.80;;;22.60;89.10;;;;;;5008405;28;20029;-62
2022/05/18 05:39:04;;;;;;;11.27;4.45;;;22.60;88.80;;;;;;5007643;28;20040;-61
2022/05/18 05:41:29;;;;;;;6.07;4.22;;;22.60;85.00;;;;;;4993306;28;20451;-61
2022/05/18 05:43:57;;;;;;;6.47;4.60;;;22.60;84.30;;;;;;5006790;28;20030;-61
2022/05/18 05:46:27;;;;;;;7.22;4.35;;;22.60;84.60;;;;;;5012728;28;20041;-62
2022/05/18 05:48:53;;;;;;;6.53;3.80;;;22.60;85.30;;;;;;5004879;28;20133;-67
2022/05/18 05:51:19;;;;;;;6.50;3.90;;;22.60;85.20;;;;;;4999006;28;20092;-65
2022/05/18 05:53:46;;;;;;;6.38;3.95;;;22.60;84.60;;;;;;5000578;28;20030;-63
2022/05/18 05:56:13;;;;;;;8.10;3.78;;;22.60;84.60;;;;;;4992871;28;20468;-63
2022/05/18 05:58:41;;;;;;;5.32;3.33;;;22.60;85.80;;;;;;4998077;28;20030;-62
2022/05/18 06:01:09;;;;;;;6.10;2.85;;;22.70;85.70;;;;;;5017297;28;20022;-64
2022/05/18 06:03:36;;;;;;;4.22;2.90;;;22.70;85.30;;;;;;5000376;28;20057;-61
2022/05/18 06:06:03;;;;;;;5.85;3.17;;;22.70;85.20;;;;;;5010683;28;20071;-60
2022/05/18 06:08:30;;;;;;;7.47;2.80;;;22.80;84.60;;;;;;5008780;28;20053;-60
2022/05/18 06:10:55;;;;;;;5.47;2.42;;;22.80;84.40;;;;;;5006282;28;20018;-61
2022/05/18 06:13:21;;;;;;;4.30;2.65;;;22.80;84.40;;;;;;5008632;28;20057;-60
2022/05/18 06:15:47;;;;;;;5.25;2.47;;;22.80;84.60;;;;;;5012506;28;20025;-61
2022/05/18 06:18:14;;;;;;;3.65;2.03;;;22.90;84.50;;;;;;5013909;28;20046;-67
2022/05/18 06:20:39;;;;;;;5.13;2.20;;;22.90;84.20;;;;;;5015937;28;20029;-65
2022/05/18 06:23:09;;;;;;;4.18;1.85;;;22.90;83.90;;;;;;5015711;28;20030;-67
2022/05/18 06:25:36;;;;;;;6.45;2.40;;;23.00;83.50;;;;;;5015253;28;20018;-65
2022/05/18 06:28:03;;;;;;;5.32;1.88;;;23.00;83.10;;;;;;5015842;28;20046;-65
2022/05/18 06:30:29;;;;;;;8.20;2.00;;;23.00;82.50;;;;;;5016166;28;20018;-65
2022/05/18 06:32:55;;;;;;;5.30;1.88;;;23.00;82.30;;;;;;5015505;28;20044;-66
2022/05/18 06:35:20;;;;;;;2.67;1.60;;;23.00;81.90;;;;;;5015933;28;20093;-61
2022/05/18 06:37:48;;;;;;;4.15;1.65;;;23.10;81.90;;;;;;5014628;28;20096;-63
2022/05/18 06:40:14;;;;;;;2.60;1.23;;;23.10;81.60;;;;;;5015761;28;20026;-63
2022/05/18 06:42:40;;;;;;;3.28;1.40;;;23.10;81.30;;;;;;5015801;28;20026;-61
2022/05/18 06:45:08;;;;;;;2.85;1.45;;;23.10;81.00;;;;;;5016005;28;20026;-63
2022/05/18 06:47:34;;;;;;;3.25;1.00;;;23.10;80.50;;;;;;5014095;28;20413;-61
2022/05/18 06:50:00;;;;;;;2.83;1.40;;;23.20;80.40;;;;;;5015810;28;20067;-66
2022/05/18 06:52:26;;;;;;;2.85;1.15;;;23.20;80.00;;;;;;5015407;28;20364;-66
2022/05/18 06:54:51;;;;;;;2.67;1.23;;;23.20;79.40;;;;;;5015651;28;20025;-66
2022/05/18 06:57:17;;;;;;;4.18;1.15;;;23.20;79.30;;;;;;5015434;28;20356;-66
2022/05/18 06:59:43;;;;;;;3.78;1.23;;;23.30;78.50;;;;;;5015613;28;20030;-65
2022/05/18 07:02:09;;;;;;;2.42;1.08;;;23.30;78.40;;;;;;5015160;28;20034;-62
2022/05/18 07:04:35;;;;;;;2.85;1.10;;;23.30;78.40;;;;;;5015568;28;20022;-63
2022/05/18 07:07:02;;;;;;;3.38;1.17;;;23.30;78.10;;;;;;5015444;28;20053;-64
2022/05/18 07:09:28;;;;;;;1.98;0.90;;;23.40;78.00;;;;;;5014158;28;20383;-65
2022/05/18 07:11:54;;;;;;;3.88;1.00;;;23.40;77.30;;;;;;5015150;28;20029;-65
2022/05/18 07:14:22;;;;;;;2.75;1.10;;;23.40;77.20;;;;;;5015234;28;20104;-62
2022/05/18 07:16:48;;;;;;;2.78;1.08;;;23.50;77.20;;;;;;5015028;28;20029;-65
2022/05/18 07:19:15;;;;;;;2.22;0.75;;;23.50;76.90;;;;;;5015325;28;20029;-61
2022/05/18 07:21:41;;;;;;;2.63;0.90;;;23.50;76.70;;;;;;5015107;28;20018;-61
2022/05/18 07:24:08;;;;;;;1.63;0.70;;;23.50;77.00;;;;;;5014986;28;20325;-62
2022/05/18 07:26:34;;;;;;;2.05;0.60;;;23.60;76.30;;;;;;5014752;28;20030;-60
2022/05/18 07:29:01;;;;;;;5.25;0.98;;;23.60;76.10;;;;;;5014410;28;20030;-60
2022/05/18 07:31:29;;;;;;;4.43;0.93;;;23.70;74.80;;;;;;5014209;28;20116;-63
2022/05/18 07:33:55;;;;;;;3.22;0.60;;;23.70;75.10;;;;;;5015088;28;20021;-63
2022/05/18 07:36:21;;;;;;;2.05;0.70;;;23.70;74.70;;;;;;5014832;28;20049;-62
2022/05/18 07:38:47;;;;;;;3.33;0.93;;;23.80;73.80;;;;;;5014518;28;20068;-62
2022/05/18 07:41:15;;;;;;;1.13;0.40;;;23.80;73.80;;;;;;5015038;28;20022;-66
2022/05/18 07:43:41;;;;;;;4.30;0.70;;;23.80;74.20;;;;;;5014807;28;20029;-61
2022/05/18 07:46:09;;;;;;;3.25;0.80;;;23.80;73.20;;;;;;5014573;28;20041;-62
2022/05/18 07:48:36;;;;;;;1.65;0.65;;;23.90;72.80;;;;;;5013384;28;20022;-61
2022/05/18 07:51:02;;;;;;;1.25;0.40;;;23.90;72.50;;;;;;5014618;28;20085;-61
2022/05/18 07:53:28;;;;;;;1.80;0.52;;;24.00;72.80;;;;;;5014728;28;20026;-61
2022/05/18 07:55:54;;;;;;;1.70;0.50;;;24.00;72.80;;;;;;5014480;28;20032;-60
2022/05/18 07:58:22;;;;;;;2.70;0.60;;;24.00;72.80;;;;;;5014358;28;20390;-63
2022/05/18 08:00:48;;;;;;;4.72;0.68;;;24.00;72.30;;;;;;5014387;28;20028;-63
2022/05/18 08:03:15;;;;;;;2.53;0.60;;;24.00;72.10;;;;;;5014256;28;20036;-65
2022/05/18 08:05:44;;;;;;;2.05;0.60;;;24.00;72.40;;;;;;5014315;28;20033;-65
2022/05/18 08:08:17;;;;;;;3.00;0.55;;;24.10;71.80;;;;;;5014064;28;20092;-62
2022/05/18 08:16:12;;;;;;;3.33;0.57;;;24.20;70.80;;;;;;5014147;28;20060;-61
2022/05/18 08:18:38;;;;;;;2.50;0.60;;;24.20;70.40;;;;;;5014048;28;20057;-62
2022/05/18 08:21:04;;;;;;;2.80;1.00;;;24.30;70.80;;;;;;5014155;28;20100;-61
2022/05/18 08:23:29;;;;;;;2.17;0.50;;;24.20;71.10;;;;;;5013863;28;20112;-61
2022/05/18 08:25:56;;;;;;;3.72;0.60;;;24.30;71.10;;;;;;5014122;28;20026;-61
2022/05/18 08:28:23;;;;;;;2.45;0.70;;;24.40;70.10;;;;;;5013627;28;20046;-62
2022/05/18 08:30:48;;;;;;;2.05;0.50;;;24.40;69.50;;;;;;5013562;28;20093;-61
2022/05/18 08:33:14;;;;;;;1.88;0.40;;;24.40;70.00;;;;;;5013630;28;20042;-61
2022/05/18 08:35:44;;;;;;;3.17;0.73;;;24.40;69.90;;;;;;5013906;28;20120;-61
2022/05/18 08:38:10;;;;;;;2.75;0.47;;;24.50;67.80;;;;;;5013998;28;20096;-61
2022/05/18 08:40:57;;;;;;;2.00;0.60;;;24.60;66.50;;;;;;5013440;28;20022;-60
2022/05/18 08:43:33;;;;;;;3.05;0.60;;;24.70;65.40;;;;;;5013294;28;20072;-61
2022/05/18 08:46:24;;;;;;;2.65;0.40;;;24.70;67.50;;;;;;5013808;28;20018;-63
2022/05/18 08:49:14;;;;;;;1.88;0.50;;;24.70;68.10;;;;;;5013192;28;20038;-62
2022/05/18 08:51:47;;;;;;;2.45;0.50;;;24.60;68.90;;;;;;5013663;28;20092;-62
2022/05/18 08:54:44;;;;;;;3.63;0.60;;;24.60;68.90;;;;;;5013459;28;20471;-61
2022/05/18 08:57:19;;;;;;;3.13;0.60;;;24.60;68.90;;;;;;5013582;28;20029;-61
2022/05/18 08:59:48;;;;;;;1.58;0.40;;;24.70;68.20;;;;;;5013211;28;20076;-60
2022/05/18 09:02:21;;;;;;;3.03;0.55;;;24.70;68.20;;;;;;5013617;28;20080;-66
2022/05/18 09:05:01;;;;;;;1.55;0.30;;;24.70;68.00;;;;;;5012056;28;20076;-61
2022/05/18 09:07:33;;;;;;;1.77;0.63;;;24.70;68.40;;;;;;5013429;28;20022;-63
2022/05/18 09:10:13;;;;;;;1.85;0.55;;;24.70;67.30;;;;;;5013252;28;20464;-61
2022/05/18 09:12:41;;;;;;;2.75;0.75;;;24.70;67.50;;;;;;5013142;28;20030;-61
2022/05/18 09:15:09;;;;;;;2.40;0.70;;;24.80;67.80;;;;;;5013214;28;20076;-63
2022/05/18 09:18:12;;;;;;;2.65;0.60;;;24.70;68.00;;;;;;5013556;28;20049;-62
2022/05/18 09:20:45;;;;;;;;;;;24.80;67.80;;;;;;5011460;28;20448;-64
2022/05/18 09:23:17;;;;;;;2.20;0.73;;;24.70;68.10;;;;;;5013008;28;19909;-62
2022/05/18 09:25:52;;;;;;;;;;;24.80;66.90;;;;;;5013644;28;20037;-65
2022/05/18 09:28:42;;;;;;;2.75;0.45;;;24.80;67.30;;;;;;5012870;28;19913;-65
2022/05/18 09:31:18;;;;;;;1.40;0.32;;;24.80;67.50;;;;;;5013018;28;20045;-66
2022/05/18 09:34:08;;;;;;;1.73;0.50;;;24.80;66.50;;;;;;5013196;28;20545;-61
2022/05/18 09:36:36;;;;;;;1.83;0.40;;;24.80;67.30;;;;;;5013187;28;20025;-67
2022/05/18 09:39:08;;;;;;;0.98;0.38;;;24.80;67.00;;;;;;5013186;28;20026;-62
2022/05/18 09:41:54;;;;;;;;;;;24.80;67.20;;;;;;5013240;28;20574;-61
2022/05/18 09:44:50;;;;;;;2.30;0.52;;;24.80;67.40;;;;;;5012839;28;20350;-66
2022/05/18 09:47:21;;;;;;;2.30;0.43;;;24.90;66.30;;;;;;5013010;28;20428;-62
2022/05/18 09:49:51;;;;;;;2.03;0.50;;;24.90;66.70;;;;;;5013012;28;20395;-66
2022/05/18 09:52:20;;;;;;;1.15;0.50;;;24.90;66.30;;;;;;5012886;28;20179;-63
2022/05/18 09:54:45;;;;;;;1.63;0.35;;;24.90;66.50;;;;;;5016889;28;20022;-67
2022/05/18 09:57:24;;;;;;;2.33;0.43;;;25.10;65.40;;;;;;5016590;28;20384;-67
2022/05/18 10:00:08;;;;;;;3.03;0.50;;;25.10;64.80;;;;;;5016860;28;20030;-64
2022/05/18 10:08:19;;;;;;;2.63;0.50;;;25.10;66.50;;;;;;5016460;28;20068;-66
2022/05/18 10:10:46;;;;;;;1.73;0.55;;;25.10;66.40;;;;;;5016118;28;20045;-66
2022/05/18 10:13:17;;;;;;;1.98;0.50;;;25.10;66.50;;;;;;5016325;28;20037;-67
2022/05/18 10:15:49;;;;;;;2.05;0.50;;;25.10;66.50;;;;;;5016428;28;20093;-65
2022/05/18 10:19:00;;;;;;;2.58;0.30;;;25.00;66.50;;;;;;5016239;28;20056;-62
2022/05/18 10:21:55;;;;;;;1.27;0.20;;;25.00;66.80;;;;;;5014541;28;20045;-66
2022/05/18 10:24:33;;;;;;;1.08;0.30;;;25.10;66.40;;;;;;5016138;28;20022;-61
2022/05/18 10:27:16;;;;;;;3.17;0.65;;;25.10;66.40;;;;;;5015842;28;20044;-61
2022/05/18 10:29:49;;;;;;;1.35;0.40;;;25.10;65.70;;;;;;5015720;28;20501;-62
2022/05/18 10:32:22;;;;;;;;;;;25.10;65.80;;;;;;5015832;28;20053;-63
2022/05/18 10:34:51;;;;;;;2.85;0.52;;;25.10;66.60;;;;;;5014962;28;19916;-61
2022/05/18 10:37:32;;;;;;;0.82;0.20;;;25.20;66.30;;;;;;5015789;28;20457;-63
2022/05/18 10:40:11;;;;;;;0.50;0.10;;;25.20;65.60;;;;;;5015615;28;20371;-66
2022/05/18 10:42:45;;;;;;;1.02;0.20;;;25.20;65.90;;;;;;5015730;28;20034;-67
2022/05/18 10:45:40;;;;;;;1.05;0.20;;;25.30;65.60;;;;;;5015702;28;20537;-67
2022/05/18 10:48:29;;;;;;;0.32;0.10;;;25.40;65.50;;;;;;5015386;28;20087;-60
2022/05/18 10:51:00;;;;;;;1.15;0.17;;;25.30;65.40;;;;;;5006692;28;20492;-60
2022/05/18 10:53:46;;;;;;;0.93;0.10;;;25.40;65.50;;;;;;5012893;28;20041;-67
2022/05/18 10:56:27;;;;;;;0.68;0.20;;;25.40;65.20;;;;;;5014154;28;20045;-61
2022/05/18 10:59:25;;;;;;;0.73;0.17;;;25.40;65.70;;;;;;5015427;28;20096;-64
2022/05/18 11:02:00;;;;;;;1.58;0.40;;;25.40;65.30;;;;;;5013707;28;20148;-67
2022/05/18 11:04:50;;;;;;;2.35;0.82;;;25.50;66.00;;;;;;5015036;28;20055;-60
2022/05/18 11:07:21;;;;;;;5.82;2.72;;;25.50;66.10;;;;;;5014911;28;20030;-60
2022/05/18 11:09:46;;;;;;;10.90;5.63;;;25.50;66.90;;;;;;5014242;28;20040;-67
2022/05/18 11:12:20;;;;;;;9.68;3.45;;;25.50;67.20;;;;;;5014144;28;20038;-67
2022/05/18 11:14:50;;;;;;;14.05;5.30;;;25.60;66.20;;;;;;5015131;28;20495;-67
2022/05/18 11:17:51;;;;;;;8.60;3.72;;;25.60;66.60;;;;;;5013960;28;20037;-62
2022/05/18 11:20:20;;;;;;;11.82;5.00;;;25.60;66.50;;;;;;5014662;28;20133;-66
2022/05/18 11:22:51;;;;;;;10.07;4.50;;;25.60;66.70;;;;;;5014043;28;20033;-62
2022/05/18 11:25:26;;;;;;;10.13;4.53;;;25.70;66.80;;;;;;5012857;28;20396;-67
2022/05/18 11:28:25;;;;;;;5.18;2.97;;;25.70;66.50;;;;;;5013223;28;20472;-62
2022/05/18 11:31:23;;;;;;;10.13;3.88;;;25.70;66.30;;;;;;4994324;28;20073;-66
2022/05/18 11:34:05;;;;;;;8.75;2.78;;;25.70;66.30;;;;;;5013000;28;20068;-66
2022/05/18 11:36:54;;;;;;;;;;;25.70;66.30;;;;;;5009340;28;20034;-65
2022/05/18 11:39:37;;;;;;;7.45;2.80;;;25.70;66.10;;;;;;5006395;28;19910;-67
2022/05/18 11:42:11;;;;;;;5.88;2.40;;;25.70;66.40;;;;;;5001574;28;20040;-68
2022/05/18 11:45:10;;;;;;;4.53;2.13;;;25.70;66.30;;;;;;5014055;28;20172;-69
2022/05/18 11:47:56;;;;;;;2.78;1.50;;;25.70;66.20;;;;;;5013977;28;20041;-66
2022/05/18 11:50:38;;;;;;;4.10;1.73;;;25.80;66.50;;;;;;5012154;28;20101;-67
2022/05/18 11:53:27;;;;;;;4.47;1.75;;;25.80;66.20;;;;;;5008012;28;20046;-65
2022/05/18 11:56:10;;;;;;;4.35;1.60;;;25.80;66.50;;;;;;5014026;28;20055;-68
2022/05/18 11:59:07;;;;;;;5.07;2.08;;;25.90;66.80;;;;;;5008695;28;20387;-66
2022/05/18 12:02:16;;;;;;;2.95;1.23;;;25.90;66.80;;;;;;5011374;28;20029;-67
2022/05/18 12:04:53;;;;;;;4.68;1.40;;;25.90;66.50;;;;;;5005072;28;20057;-66
2022/05/18 12:07:24;;;;;;;4.85;1.80;;;25.90;66.60;;;;;;5013566;28;20034;-67
2022/05/18 12:09:49;;;;;;;3.88;1.27;;;25.90;66.60;;;;;;5014019;28;20022;-66
2022/05/18 12:12:28;;;;;;;2.88;0.98;;;26.00;66.10;;;;;;5012035;28;20470;-66
2022/05/18 12:15:31;;;;;;;2.70;0.82;;;26.00;65.40;;;;;;4994345;28;20026;-65
2022/05/18 12:17:59;;;;;;;;;;;26.00;65.90;;;;;;5010249;28;20498;-77
2022/05/18 12:20:28;;;;;;;3.17;1.13;;;26.00;66.30;;;;;;5013357;28;19960;-62
2022/05/18 12:22:58;;;;;;;3.08;1.10;;;26.00;66.40;;;;;;5008914;28;20045;-64
2022/05/18 12:25:26;;;;;;;2.28;0.85;;;26.10;65.30;;;;;;5017574;28;20387;-66
2022/05/18 12:27:58;;;;;;;2.30;0.90;;;26.10;64.40;;;;;;5013641;28;20030;-68
2022/05/18 12:30:26;;;;;;;4.03;0.93;;;26.10;64.10;;;;;;4999980;28;20484;-61
2022/05/18 12:32:53;;;;;;;1.77;1.02;;;26.20;63.80;;;;;;4998581;28;20044;-63
2022/05/18 12:35:32;;;;;;;2.33;1.00;;;26.20;65.10;;;;;;4994688;28;20054;-61
2022/05/18 12:38:10;;;;;;;2.35;0.95;;;26.20;65.90;;;;;;4994311;28;20122;-63
2022/05/18 12:40:45;;;;;;;5.30;1.55;;;26.20;66.20;;;;;;5002599;28;20028;-66
2022/05/18 12:43:50;;;;;;;3.53;0.93;;;26.20;65.90;;;;;;5010593;28;20041;-60
2022/05/18 12:46:15;;;;;;;1.90;0.90;;;26.20;66.20;;;;;;5010271;28;20394;-68
2022/05/18 12:48:47;;;;;;;3.03;1.00;;;26.20;66.10;;;;;;5003272;28;20034;-69
2022/05/18 12:51:28;;;;;;;2.67;0.93;;;26.20;65.30;;;;;;5003650;28;20044;-65
2022/05/18 12:54:12;;;;;;;2.28;1.15;;;26.20;65.80;;;;;;5016678;28;20037;-65
2022/05/18 12:56:38;;;;;;;4.80;1.48;;;26.30;64.10;;;;;;5009432;28;20061;-68
2022/05/18 12:59:34;;;;;;;1.42;0.80;;;26.30;63.90;;;;;;5008177;28;20081;-69
2022/05/18 13:02:05;;;;;;;1.73;0.70;;;26.30;65.20;;;;;;5012327;28;20475;-68
2022/05/18 13:04:40;;;;;;;2.38;0.82;;;26.30;65.90;;;;;;5010388;28;20026;-66
2022/05/18 13:07:30;;;;;;;2.88;0.73;;;26.30;65.90;;;;;;5010678;28;20048;-66
2022/05/18 13:10:12;;;;;;;4.53;0.95;;;26.30;66.00;;;;;;5007505;28;20013;-68
2022/05/18 13:12:41;;;;;;;4.53;0.70;;;26.30;66.00;;;;;;5010923;28;20129;-66
2022/05/18 13:15:18;;;;;;;2.13;0.70;;;26.40;66.00;;;;;;5012706;28;20033;-68
2022/05/18 13:17:47;;;;;;;4.53;0.93;;;26.40;65.70;;;;;;5010862;28;20026;-63